sensor_id;sensor_type;location;lat;lon;timestamp;P1;durP1;ratioP1;P2;durP2;ratioP2
72791;SDS011;60907;53.268;8.764;2022-12-10T00:00:41;39.20;;;13.57;;
72791;SDS011;60907;53.268;8.764;2022-12-10T00:03:06;34.87;;;11.87;;
72791;SDS011;60907;53.268;8.764;2022-12-10T00:05:35;36.57;;;12.33;;
72791;SDS011;60907;53.268;8.764;2022-12-10T00:08:01;34.05;;;12.45;;
72791;SDS011;60907;53.268;8.764;2022-12-10T00:10:26;37.72;;;12.20;;
72791;SDS011;60907;53.268;8.764;2022-12-10T00:12:51;33.08;;;13.10;;
72791;SDS011;60907;53.268;8.764;2022-12-10T00:15:17;33.60;;;12.20;;
72791;SDS011;60907;53.268;8.764;2022-12-10T00:17:42;37.53;;;11.68;;
72791;SDS011;60907;53.268;8.764;2022-12-10T00:20:08;32.83;;;11.87;;
72791;SDS011;60907;53.268;8.764;2022-12-10T00:22:34;34.60;;;12.40;;
72791;SDS011;60907;53.268;8.764;2022-12-10T00:25:00;34.70;;;11.27;;
72791;SDS011;60907;53.268;8.764;2022-12-10T00:27:25;39.78;;;13.25;;
72791;SDS011;60907;53.268;8.764;2022-12-10T00:29:51;36.90;;;12.47;;
72791;SDS011;60907;53.268;8.764;2022-12-10T00:32:16;32.42;;;11.52;;
72791;SDS011;60907;53.268;8.764;2022-12-10T00:34:41;34.15;;;11.38;;
72791;SDS011;60907;53.268;8.764;2022-12-10T00:37:07;32.58;;;11.48;;
72791;SDS011;60907;53.268;8.764;2022-12-10T00:39:32;37.73;;;12.57;;
72791;SDS011;60907;53.268;8.764;2022-12-10T00:41:57;33.07;;;12.53;;
72791;SDS011;60907;53.268;8.764;2022-12-10T00:44:23;32.83;;;12.13;;
72791;SDS011;60907;53.268;8.764;2022-12-10T00:46:48;33.60;;;13.07;;
72791;SDS011;60907;53.268;8.764;2022-12-10T00:49:14;42.35;;;11.68;;
72791;SDS011;60907;53.268;8.764;2022-12-10T00:51:39;40.08;;;13.75;;
72791;SDS011;60907;53.268;8.764;2022-12-10T00:54:05;38.22;;;13.10;;
72791;SDS011;60907;53.268;8.764;2022-12-10T00:56:32;31.30;;;11.00;;
72791;SDS011;60907;53.268;8.764;2022-12-10T00:58:59;36.08;;;12.50;;
72791;SDS011;60907;53.268;8.764;2022-12-10T01:01:26;36.95;;;12.88;;
72791;SDS011;60907;53.268;8.764;2022-12-10T01:06:31;35.80;;;11.95;;
72791;SDS011;60907;53.268;8.764;2022-12-10T01:09:02;36.83;;;13.18;;
72791;SDS011;60907;53.268;8.764;2022-12-10T01:11:35;35.92;;;12.27;;
72791;SDS011;60907;53.268;8.764;2022-12-10T01:14:08;32.05;;;12.27;;
72791;SDS011;60907;53.268;8.764;2022-12-10T01:16:35;41.25;;;13.88;;
72791;SDS011;60907;53.268;8.764;2022-12-10T01:19:00;38.40;;;13.48;;
72791;SDS011;60907;53.268;8.764;2022-12-10T01:21:26;35.22;;;12.77;;
72791;SDS011;60907;53.268;8.764;2022-12-10T01:23:53;37.90;;;13.48;;
72791;SDS011;60907;53.268;8.764;2022-12-10T01:26:23;38.08;;;13.13;;
72791;SDS011;60907;53.268;8.764;2022-12-10T01:28:50;35.97;;;12.57;;
72791;SDS011;60907;53.268;8.764;2022-12-10T01:31:17;35.13;;;13.32;;
72791;SDS011;60907;53.268;8.764;2022-12-10T01:33:47;36.35;;;13.10;;
72791;SDS011;60907;53.268;8.764;2022-12-10T01:36:17;36.03;;;12.82;;
72791;SDS011;60907;53.268;8.764;2022-12-10T01:38:45;31.92;;;11.95;;
72791;SDS011;60907;53.268;8.764;2022-12-10T01:41:15;37.03;;;11.57;;
72791;SDS011;60907;53.268;8.764;2022-12-10T01:46:31;33.42;;;11.50;;
72791;SDS011;60907;53.268;8.764;2022-12-10T01:48:58;36.72;;;13.65;;
72791;SDS011;60907;53.268;8.764;2022-12-10T01:51:25;34.28;;;13.60;;
72791;SDS011;60907;53.268;8.764;2022-12-10T01:53:54;29.33;;;13.10;;
72791;SDS011;60907;53.268;8.764;2022-12-10T01:56:20;33.80;;;12.82;;
72791;SDS011;60907;53.268;8.764;2022-12-10T01:58:46;35.95;;;12.70;;
72791;SDS011;60907;53.268;8.764;2022-12-10T02:01:14;38.53;;;14.38;;
72791;SDS011;60907;53.268;8.764;2022-12-10T02:06:22;30.10;;;12.50;;
72791;SDS011;60907;53.268;8.764;2022-12-10T02:08:59;31.48;;;12.18;;
72791;SDS011;60907;53.268;8.764;2022-12-10T02:11:33;30.23;;;10.82;;
72791;SDS011;60907;53.268;8.764;2022-12-10T02:14:50;37.22;;;13.02;;
72791;SDS011;60907;53.268;8.764;2022-12-10T02:17:20;33.10;;;11.77;;
72791;SDS011;60907;53.268;8.764;2022-12-10T02:22:57;30.27;;;12.23;;
72791;SDS011;60907;53.268;8.764;2022-12-10T02:30:40;30.85;;;11.43;;
72791;SDS011;60907;53.268;8.764;2022-12-10T02:33:07;34.15;;;11.75;;
72791;SDS011;60907;53.268;8.764;2022-12-10T02:35:33;34.72;;;12.90;;
72791;SDS011;60907;53.268;8.764;2022-12-10T02:38:25;31.10;;;12.13;;
72791;SDS011;60907;53.268;8.764;2022-12-10T02:40:52;34.63;;;12.52;;
72791;SDS011;60907;53.268;8.764;2022-12-10T02:43:19;31.77;;;12.70;;
72791;SDS011;60907;53.268;8.764;2022-12-10T02:45:46;35.10;;;13.80;;
72791;SDS011;60907;53.268;8.764;2022-12-10T02:48:12;37.33;;;13.70;;
72791;SDS011;60907;53.268;8.764;2022-12-10T02:50:38;35.80;;;14.48;;
72791;SDS011;60907;53.268;8.764;2022-12-10T02:53:04;37.63;;;13.02;;
72791;SDS011;60907;53.268;8.764;2022-12-10T02:55:30;35.40;;;13.25;;
72791;SDS011;60907;53.268;8.764;2022-12-10T03:06:27;33.85;;;14.18;;
72791;SDS011;60907;53.268;8.764;2022-12-10T03:09:01;31.05;;;12.35;;
72791;SDS011;60907;53.268;8.764;2022-12-10T03:11:29;31.45;;;12.57;;
72791;SDS011;60907;53.268;8.764;2022-12-10T03:16:42;34.58;;;12.95;;
72791;SDS011;60907;53.268;8.764;2022-12-10T03:19:13;38.50;;;12.32;;
72791;SDS011;60907;53.268;8.764;2022-12-10T03:21:41;34.22;;;12.18;;
72791;SDS011;60907;53.268;8.764;2022-12-10T03:24:08;35.22;;;13.50;;
72791;SDS011;60907;53.268;8.764;2022-12-10T03:26:34;37.33;;;13.10;;
72791;SDS011;60907;53.268;8.764;2022-12-10T03:29:02;36.58;;;13.88;;
72791;SDS011;60907;53.268;8.764;2022-12-10T03:31:31;33.08;;;12.52;;
72791;SDS011;60907;53.268;8.764;2022-12-10T03:33:58;36.22;;;14.15;;
72791;SDS011;60907;53.268;8.764;2022-12-10T03:36:24;31.23;;;12.07;;
72791;SDS011;60907;53.268;8.764;2022-12-10T03:43:52;26.33;;;10.53;;
72791;SDS011;60907;53.268;8.764;2022-12-10T03:46:19;29.77;;;11.50;;
72791;SDS011;60907;53.268;8.764;2022-12-10T03:48:44;35.72;;;12.80;;
72791;SDS011;60907;53.268;8.764;2022-12-10T03:51:10;32.25;;;13.23;;
72791;SDS011;60907;53.268;8.764;2022-12-10T03:53:35;38.05;;;12.00;;
72791;SDS011;60907;53.268;8.764;2022-12-10T03:56:00;35.60;;;12.93;;
72791;SDS011;60907;53.268;8.764;2022-12-10T03:58:26;32.10;;;12.82;;
72791;SDS011;60907;53.268;8.764;2022-12-10T04:00:51;30.52;;;12.32;;
72791;SDS011;60907;53.268;8.764;2022-12-10T04:03:16;33.05;;;13.98;;
72791;SDS011;60907;53.268;8.764;2022-12-10T04:05:42;34.97;;;12.80;;
72791;SDS011;60907;53.268;8.764;2022-12-10T04:08:07;36.77;;;13.70;;
72791;SDS011;60907;53.268;8.764;2022-12-10T04:10:36;33.90;;;13.38;;
72791;SDS011;60907;53.268;8.764;2022-12-10T04:13:02;38.47;;;13.75;;
72791;SDS011;60907;53.268;8.764;2022-12-10T04:15:46;32.20;;;12.23;;
72791;SDS011;60907;53.268;8.764;2022-12-10T04:18:44;25.55;;;11.38;;
72791;SDS011;60907;53.268;8.764;2022-12-10T04:21:09;37.23;;;13.27;;
72791;SDS011;60907;53.268;8.764;2022-12-10T04:23:54;34.90;;;12.48;;
72791;SDS011;60907;53.268;8.764;2022-12-10T04:26:37;32.60;;;11.32;;
72791;SDS011;60907;53.268;8.764;2022-12-10T04:29:18;34.30;;;12.32;;
72791;SDS011;60907;53.268;8.764;2022-12-10T04:31:45;34.92;;;13.15;;
72791;SDS011;60907;53.268;8.764;2022-12-10T04:34:10;34.88;;;12.15;;
72791;SDS011;60907;53.268;8.764;2022-12-10T04:36:35;30.48;;;12.88;;
72791;SDS011;60907;53.268;8.764;2022-12-10T04:39:01;36.37;;;13.50;;
72791;SDS011;60907;53.268;8.764;2022-12-10T04:41:26;31.38;;;13.95;;
72791;SDS011;60907;53.268;8.764;2022-12-10T04:43:52;37.38;;;13.10;;
72791;SDS011;60907;53.268;8.764;2022-12-10T04:46:17;35.13;;;13.18;;
72791;SDS011;60907;53.268;8.764;2022-12-10T04:48:43;33.88;;;12.65;;
72791;SDS011;60907;53.268;8.764;2022-12-10T04:51:08;31.57;;;12.50;;
72791;SDS011;60907;53.268;8.764;2022-12-10T04:53:34;34.45;;;13.07;;
72791;SDS011;60907;53.268;8.764;2022-12-10T04:55:59;36.63;;;13.52;;
72791;SDS011;60907;53.268;8.764;2022-12-10T04:58:26;33.65;;;12.43;;
72791;SDS011;60907;53.268;8.764;2022-12-10T05:01:00;32.22;;;12.48;;
72791;SDS011;60907;53.268;8.764;2022-12-10T05:03:27;34.15;;;12.95;;
72791;SDS011;60907;53.268;8.764;2022-12-10T05:05:53;32.00;;;11.75;;
72791;SDS011;60907;53.268;8.764;2022-12-10T05:08:18;35.75;;;13.02;;
72791;SDS011;60907;53.268;8.764;2022-12-10T05:10:44;32.80;;;11.63;;
72791;SDS011;60907;53.268;8.764;2022-12-10T05:13:09;28.90;;;11.80;;
72791;SDS011;60907;53.268;8.764;2022-12-10T05:15:37;30.20;;;11.90;;
72791;SDS011;60907;53.268;8.764;2022-12-10T05:18:03;28.52;;;11.80;;
72791;SDS011;60907;53.268;8.764;2022-12-10T05:20:28;32.47;;;12.75;;
72791;SDS011;60907;53.268;8.764;2022-12-10T05:22:54;26.02;;;11.85;;
72791;SDS011;60907;53.268;8.764;2022-12-10T05:25:37;28.90;;;12.27;;
72791;SDS011;60907;53.268;8.764;2022-12-10T05:28:18;26.55;;;11.05;;
72791;SDS011;60907;53.268;8.764;2022-12-10T05:30:45;29.08;;;10.98;;
72791;SDS011;60907;53.268;8.764;2022-12-10T05:33:10;30.90;;;11.43;;
72791;SDS011;60907;53.268;8.764;2022-12-10T05:35:35;31.20;;;11.77;;
72791;SDS011;60907;53.268;8.764;2022-12-10T05:38:01;29.10;;;11.13;;
72791;SDS011;60907;53.268;8.764;2022-12-10T05:40:26;30.42;;;11.57;;
72791;SDS011;60907;53.268;8.764;2022-12-10T05:42:52;29.67;;;12.35;;
72791;SDS011;60907;53.268;8.764;2022-12-10T05:45:17;27.80;;;11.30;;
72791;SDS011;60907;53.268;8.764;2022-12-10T05:47:42;26.77;;;11.07;;
72791;SDS011;60907;53.268;8.764;2022-12-10T05:50:08;29.97;;;11.33;;
72791;SDS011;60907;53.268;8.764;2022-12-10T05:52:33;31.08;;;11.50;;
72791;SDS011;60907;53.268;8.764;2022-12-10T05:54:59;24.17;;;10.97;;
72791;SDS011;60907;53.268;8.764;2022-12-10T05:57:24;24.52;;;10.98;;
72791;SDS011;60907;53.268;8.764;2022-12-10T05:59:49;30.67;;;11.73;;
72791;SDS011;60907;53.268;8.764;2022-12-10T06:02:15;26.47;;;10.93;;
72791;SDS011;60907;53.268;8.764;2022-12-10T06:04:40;29.63;;;11.35;;
72791;SDS011;60907;53.268;8.764;2022-12-10T06:07:06;22.55;;;10.15;;
72791;SDS011;60907;53.268;8.764;2022-12-10T06:09:32;27.88;;;11.38;;
72791;SDS011;60907;53.268;8.764;2022-12-10T06:11:59;24.70;;;9.80;;
72791;SDS011;60907;53.268;8.764;2022-12-10T06:14:24;24.35;;;9.77;;
72791;SDS011;60907;53.268;8.764;2022-12-10T06:16:50;25.48;;;10.27;;
72791;SDS011;60907;53.268;8.764;2022-12-10T06:19:15;23.70;;;10.70;;
72791;SDS011;60907;53.268;8.764;2022-12-10T06:21:40;22.77;;;9.80;;
72791;SDS011;60907;53.268;8.764;2022-12-10T06:24:06;19.65;;;8.25;;
72791;SDS011;60907;53.268;8.764;2022-12-10T06:26:32;20.35;;;9.52;;
72791;SDS011;60907;53.268;8.764;2022-12-10T06:28:57;22.45;;;9.63;;
72791;SDS011;60907;53.268;8.764;2022-12-10T06:31:23;21.80;;;8.57;;
72791;SDS011;60907;53.268;8.764;2022-12-10T06:33:48;23.73;;;9.82;;
72791;SDS011;60907;53.268;8.764;2022-12-10T06:36:15;17.23;;;8.60;;
72791;SDS011;60907;53.268;8.764;2022-12-10T06:38:41;17.77;;;8.27;;
72791;SDS011;60907;53.268;8.764;2022-12-10T06:41:07;20.27;;;9.10;;
72791;SDS011;60907;53.268;8.764;2022-12-10T06:43:34;20.67;;;9.88;;
72791;SDS011;60907;53.268;8.764;2022-12-10T06:46:04;20.08;;;10.57;;
72791;SDS011;60907;53.268;8.764;2022-12-10T06:48:33;18.02;;;7.40;;
72791;SDS011;60907;53.268;8.764;2022-12-10T06:50:58;18.48;;;8.20;;
72791;SDS011;60907;53.268;8.764;2022-12-10T06:53:24;16.58;;;8.63;;
72791;SDS011;60907;53.268;8.764;2022-12-10T06:55:49;17.73;;;8.40;;
72791;SDS011;60907;53.268;8.764;2022-12-10T06:58:14;18.10;;;8.67;;
72791;SDS011;60907;53.268;8.764;2022-12-10T07:00:40;18.27;;;7.30;;
72791;SDS011;60907;53.268;8.764;2022-12-10T07:03:05;17.23;;;7.82;;
72791;SDS011;60907;53.268;8.764;2022-12-10T07:05:31;16.90;;;7.18;;
72791;SDS011;60907;53.268;8.764;2022-12-10T07:07:56;17.48;;;7.57;;
72791;SDS011;60907;53.268;8.764;2022-12-10T07:10:22;22.77;;;8.17;;
72791;SDS011;60907;53.268;8.764;2022-12-10T07:12:47;15.30;;;7.00;;
72791;SDS011;60907;53.268;8.764;2022-12-10T07:15:13;15.02;;;7.30;;
72791;SDS011;60907;53.268;8.764;2022-12-10T07:17:38;19.23;;;7.72;;
72791;SDS011;60907;53.268;8.764;2022-12-10T07:20:04;15.23;;;7.47;;
72791;SDS011;60907;53.268;8.764;2022-12-10T07:22:29;16.33;;;7.10;;
72791;SDS011;60907;53.268;8.764;2022-12-10T07:24:55;22.48;;;8.75;;
72791;SDS011;60907;53.268;8.764;2022-12-10T07:27:20;15.77;;;8.02;;
72791;SDS011;60907;53.268;8.764;2022-12-10T07:29:46;17.33;;;8.73;;
72791;SDS011;60907;53.268;8.764;2022-12-10T07:32:11;19.92;;;9.27;;
72791;SDS011;60907;53.268;8.764;2022-12-10T07:34:37;20.48;;;9.57;;
72791;SDS011;60907;53.268;8.764;2022-12-10T07:37:02;22.48;;;9.65;;
72791;SDS011;60907;53.268;8.764;2022-12-10T07:39:27;21.70;;;8.85;;
72791;SDS011;60907;53.268;8.764;2022-12-10T07:41:53;22.50;;;9.68;;
72791;SDS011;60907;53.268;8.764;2022-12-10T07:44:19;20.60;;;9.70;;
72791;SDS011;60907;53.268;8.764;2022-12-10T07:46:46;25.25;;;11.45;;
72791;SDS011;60907;53.268;8.764;2022-12-10T07:49:12;26.00;;;12.32;;
72791;SDS011;60907;53.268;8.764;2022-12-10T07:51:38;23.05;;;12.07;;
72791;SDS011;60907;53.268;8.764;2022-12-10T07:54:03;30.45;;;13.68;;
72791;SDS011;60907;53.268;8.764;2022-12-10T07:56:29;22.77;;;10.73;;
72791;SDS011;60907;53.268;8.764;2022-12-10T07:58:54;25.27;;;10.50;;
72791;SDS011;60907;53.268;8.764;2022-12-10T08:01:21;24.47;;;10.30;;
72791;SDS011;60907;53.268;8.764;2022-12-10T08:03:48;22.60;;;10.35;;
72791;SDS011;60907;53.268;8.764;2022-12-10T08:06:14;19.98;;;8.50;;
72791;SDS011;60907;53.268;8.764;2022-12-10T08:08:41;21.33;;;10.35;;
72791;SDS011;60907;53.268;8.764;2022-12-10T08:11:08;21.25;;;10.02;;
72791;SDS011;60907;53.268;8.764;2022-12-10T08:13:33;18.92;;;8.23;;
72791;SDS011;60907;53.268;8.764;2022-12-10T08:16:03;16.38;;;7.57;;
72791;SDS011;60907;53.268;8.764;2022-12-10T08:18:33;18.35;;;7.85;;
72791;SDS011;60907;53.268;8.764;2022-12-10T08:21:03;17.48;;;7.60;;
72791;SDS011;60907;53.268;8.764;2022-12-10T08:23:29;16.05;;;7.45;;
72791;SDS011;60907;53.268;8.764;2022-12-10T08:25:55;15.03;;;7.80;;
72791;SDS011;60907;53.268;8.764;2022-12-10T08:28:20;18.33;;;8.00;;
72791;SDS011;60907;53.268;8.764;2022-12-10T08:30:46;18.80;;;7.07;;
72791;SDS011;60907;53.268;8.764;2022-12-10T08:33:12;17.85;;;8.98;;
72791;SDS011;60907;53.268;8.764;2022-12-10T08:35:37;15.00;;;7.80;;
72791;SDS011;60907;53.268;8.764;2022-12-10T08:38:03;17.42;;;8.55;;
72791;SDS011;60907;53.268;8.764;2022-12-10T08:40:28;18.85;;;8.98;;
72791;SDS011;60907;53.268;8.764;2022-12-10T08:42:54;23.45;;;9.70;;
72791;SDS011;60907;53.268;8.764;2022-12-10T08:45:19;18.73;;;9.30;;
72791;SDS011;60907;53.268;8.764;2022-12-10T08:47:44;18.50;;;8.77;;
72791;SDS011;60907;53.268;8.764;2022-12-10T08:50:10;18.92;;;8.13;;
72791;SDS011;60907;53.268;8.764;2022-12-10T08:52:35;17.52;;;8.60;;
72791;SDS011;60907;53.268;8.764;2022-12-10T08:55:01;18.52;;;9.20;;
72791;SDS011;60907;53.268;8.764;2022-12-10T08:57:26;18.75;;;8.55;;
72791;SDS011;60907;53.268;8.764;2022-12-10T08:59:51;22.10;;;9.53;;
72791;SDS011;60907;53.268;8.764;2022-12-10T09:02:17;19.13;;;10.40;;
72791;SDS011;60907;53.268;8.764;2022-12-10T09:04:42;23.08;;;10.73;;
72791;SDS011;60907;53.268;8.764;2022-12-10T09:07:10;19.90;;;9.38;;
72791;SDS011;60907;53.268;8.764;2022-12-10T09:09:36;20.90;;;10.32;;
72791;SDS011;60907;53.268;8.764;2022-12-10T09:12:01;21.35;;;10.88;;
72791;SDS011;60907;53.268;8.764;2022-12-10T09:14:27;20.83;;;9.68;;
72791;SDS011;60907;53.268;8.764;2022-12-10T09:16:52;25.95;;;10.35;;
72791;SDS011;60907;53.268;8.764;2022-12-10T09:19:18;18.88;;;8.43;;
72791;SDS011;60907;53.268;8.764;2022-12-10T09:21:43;24.98;;;10.45;;
72791;SDS011;60907;53.268;8.764;2022-12-10T09:24:09;23.17;;;11.20;;
72791;SDS011;60907;53.268;8.764;2022-12-10T09:26:34;25.20;;;11.57;;
72791;SDS011;60907;53.268;8.764;2022-12-10T09:28:59;27.75;;;12.20;;
72791;SDS011;60907;53.268;8.764;2022-12-10T09:31:25;20.20;;;10.27;;
72791;SDS011;60907;53.268;8.764;2022-12-10T09:33:53;23.80;;;11.32;;
72791;SDS011;60907;53.268;8.764;2022-12-10T09:36:19;23.10;;;10.63;;
72791;SDS011;60907;53.268;8.764;2022-12-10T09:38:45;22.10;;;11.32;;
72791;SDS011;60907;53.268;8.764;2022-12-10T09:51:46;21.60;;;10.13;;
72791;SDS011;60907;53.268;8.764;2022-12-10T09:56:44;19.25;;;8.85;;
72791;SDS011;60907;53.268;8.764;2022-12-10T09:59:15;24.85;;;10.25;;
72791;SDS011;60907;53.268;8.764;2022-12-10T10:01:44;23.67;;;10.40;;
72791;SDS011;60907;53.268;8.764;2022-12-10T10:04:10;22.20;;;9.10;;
72791;SDS011;60907;53.268;8.764;2022-12-10T10:06:36;17.48;;;9.13;;
72791;SDS011;60907;53.268;8.764;2022-12-10T10:09:02;18.83;;;9.20;;
72791;SDS011;60907;53.268;8.764;2022-12-10T10:11:29;19.73;;;7.95;;
72791;SDS011;60907;53.268;8.764;2022-12-10T10:14:01;21.23;;;9.82;;
72791;SDS011;60907;53.268;8.764;2022-12-10T10:16:43;23.52;;;9.98;;
72791;SDS011;60907;53.268;8.764;2022-12-10T10:19:12;21.50;;;10.30;;
72791;SDS011;60907;53.268;8.764;2022-12-10T10:21:43;18.70;;;7.95;;
72791;SDS011;60907;53.268;8.764;2022-12-10T10:24:15;16.02;;;7.60;;
72791;SDS011;60907;53.268;8.764;2022-12-10T10:26:42;17.40;;;7.60;;
72791;SDS011;60907;53.268;8.764;2022-12-10T10:29:08;20.85;;;10.27;;
72791;SDS011;60907;53.268;8.764;2022-12-10T10:31:38;18.25;;;9.23;;
72791;SDS011;60907;53.268;8.764;2022-12-10T10:34:11;20.90;;;9.85;;
72791;SDS011;60907;53.268;8.764;2022-12-10T10:36:40;22.27;;;10.35;;
72791;SDS011;60907;53.268;8.764;2022-12-10T10:41:40;27.02;;;10.40;;
72791;SDS011;60907;53.268;8.764;2022-12-10T10:44:12;21.65;;;9.63;;
72791;SDS011;60907;53.268;8.764;2022-12-10T10:46:39;22.23;;;8.93;;
72791;SDS011;60907;53.268;8.764;2022-12-10T10:49:14;26.23;;;11.25;;
72791;SDS011;60907;53.268;8.764;2022-12-10T10:51:44;22.48;;;10.30;;
72791;SDS011;60907;53.268;8.764;2022-12-10T10:54:19;23.80;;;10.68;;
72791;SDS011;60907;53.268;8.764;2022-12-10T10:56:56;29.67;;;11.60;;
72791;SDS011;60907;53.268;8.764;2022-12-10T10:59:34;24.45;;;11.75;;
72791;SDS011;60907;53.268;8.764;2022-12-10T11:02:04;25.80;;;10.77;;
72791;SDS011;60907;53.268;8.764;2022-12-10T11:04:49;24.17;;;9.98;;
72791;SDS011;60907;53.268;8.764;2022-12-10T11:09:48;23.55;;;9.40;;
72791;SDS011;60907;53.268;8.764;2022-12-10T11:12:28;24.02;;;9.90;;
72791;SDS011;60907;53.268;8.764;2022-12-10T11:14:53;20.75;;;10.25;;
72791;SDS011;60907;53.268;8.764;2022-12-10T11:17:20;21.38;;;9.88;;
72791;SDS011;60907;53.268;8.764;2022-12-10T11:22:40;24.48;;;9.77;;
72791;SDS011;60907;53.268;8.764;2022-12-10T11:25:17;25.27;;;10.50;;
72791;SDS011;60907;53.268;8.764;2022-12-10T11:30:37;21.55;;;10.02;;
72791;SDS011;60907;53.268;8.764;2022-12-10T11:49:43;25.17;;;9.98;;
72791;SDS011;60907;53.268;8.764;2022-12-10T11:57:40;20.73;;;8.85;;
72791;SDS011;60907;53.268;8.764;2022-12-10T12:10:49;15.85;;;6.88;;
72791;SDS011;60907;53.268;8.764;2022-12-10T12:16:16;17.38;;;7.18;;
72791;SDS011;60907;53.268;8.764;2022-12-10T12:18:55;15.65;;;8.40;;
72791;SDS011;60907;53.268;8.764;2022-12-10T12:21:27;16.95;;;7.72;;
72791;SDS011;60907;53.268;8.764;2022-12-10T12:24:03;18.88;;;7.75;;
72791;SDS011;60907;53.268;8.764;2022-12-10T12:26:41;15.57;;;7.55;;
72791;SDS011;60907;53.268;8.764;2022-12-10T12:31:52;22.33;;;9.23;;
72791;SDS011;60907;53.268;8.764;2022-12-10T12:34:27;19.38;;;9.13;;
72791;SDS011;60907;53.268;8.764;2022-12-10T12:36:59;20.95;;;8.38;;
72791;SDS011;60907;53.268;8.764;2022-12-10T12:49:52;15.73;;;6.85;;
72791;SDS011;60907;53.268;8.764;2022-12-10T12:55:00;17.33;;;7.80;;
72791;SDS011;60907;53.268;8.764;2022-12-10T13:00:18;15.80;;;7.60;;
72791;SDS011;60907;53.268;8.764;2022-12-10T13:05:43;19.98;;;8.50;;
72791;SDS011;60907;53.268;8.764;2022-12-10T13:15:52;20.08;;;8.23;;
72791;SDS011;60907;53.268;8.764;2022-12-10T13:18:19;18.80;;;9.15;;
72791;SDS011;60907;53.268;8.764;2022-12-10T13:20:50;19.02;;;9.70;;
72791;SDS011;60907;53.268;8.764;2022-12-10T13:23:35;20.95;;;10.23;;
72791;SDS011;60907;53.268;8.764;2022-12-10T13:26:24;16.00;;;8.02;;
72791;SDS011;60907;53.268;8.764;2022-12-10T13:28:52;19.85;;;9.60;;
72791;SDS011;60907;53.268;8.764;2022-12-10T13:36:37;19.00;;;8.25;;
72791;SDS011;60907;53.268;8.764;2022-12-10T13:45:35;15.80;;;7.50;;
72791;SDS011;60907;53.268;8.764;2022-12-10T13:47:53;18.40;;;8.38;;
72791;SDS011;60907;53.268;8.764;2022-12-10T13:55:33;20.02;;;8.45;;
72791;SDS011;60907;53.268;8.764;2022-12-10T14:01:16;22.02;;;9.00;;
72791;SDS011;60907;53.268;8.764;2022-12-10T14:06:35;18.70;;;8.90;;
72791;SDS011;60907;53.268;8.764;2022-12-10T14:09:05;16.75;;;7.50;;
72791;SDS011;60907;53.268;8.764;2022-12-10T14:11:47;22.67;;;8.75;;
72791;SDS011;60907;53.268;8.764;2022-12-10T14:14:19;19.98;;;9.27;;
72791;SDS011;60907;53.268;8.764;2022-12-10T14:16:48;21.67;;;9.27;;
72791;SDS011;60907;53.268;8.764;2022-12-10T14:19:14;20.00;;;8.07;;
72791;SDS011;60907;53.268;8.764;2022-12-10T14:21:41;20.10;;;8.23;;
72791;SDS011;60907;53.268;8.764;2022-12-10T14:27:00;17.42;;;8.70;;
72791;SDS011;60907;53.268;8.764;2022-12-10T14:29:28;26.90;;;11.38;;
72791;SDS011;60907;53.268;8.764;2022-12-10T14:31:54;23.13;;;9.63;;
72791;SDS011;60907;53.268;8.764;2022-12-10T14:34:24;19.70;;;8.55;;
72791;SDS011;60907;53.268;8.764;2022-12-10T14:36:52;19.92;;;8.80;;
72791;SDS011;60907;53.268;8.764;2022-12-10T14:39:26;20.90;;;8.48;;
72791;SDS011;60907;53.268;8.764;2022-12-10T14:41:55;22.35;;;9.68;;
72791;SDS011;60907;53.268;8.764;2022-12-10T14:44:22;19.75;;;9.20;;
72791;SDS011;60907;53.268;8.764;2022-12-10T14:46:47;21.67;;;8.98;;
72791;SDS011;60907;53.268;8.764;2022-12-10T14:49:15;20.17;;;8.27;;
72791;SDS011;60907;53.268;8.764;2022-12-10T14:51:48;21.38;;;9.43;;
72791;SDS011;60907;53.268;8.764;2022-12-10T14:56:53;20.35;;;8.68;;
72791;SDS011;60907;53.268;8.764;2022-12-10T14:59:21;17.38;;;7.78;;
72791;SDS011;60907;53.268;8.764;2022-12-10T15:01:51;22.95;;;10.93;;
72791;SDS011;60907;53.268;8.764;2022-12-10T15:04:21;26.60;;;11.75;;
72791;SDS011;60907;53.268;8.764;2022-12-10T15:06:46;21.23;;;8.00;;
72791;SDS011;60907;53.268;8.764;2022-12-10T15:09:19;25.85;;;10.80;;
72791;SDS011;60907;53.268;8.764;2022-12-10T15:11:52;16.85;;;8.10;;
72791;SDS011;60907;53.268;8.764;2022-12-10T15:14:19;23.30;;;9.95;;
72791;SDS011;60907;53.268;8.764;2022-12-10T15:16:45;19.77;;;9.23;;
72791;SDS011;60907;53.268;8.764;2022-12-10T15:21:47;24.08;;;10.45;;
72791;SDS011;60907;53.268;8.764;2022-12-10T15:26:42;22.50;;;9.20;;
72791;SDS011;60907;53.268;8.764;2022-12-10T15:31:48;20.40;;;9.15;;
72791;SDS011;60907;53.268;8.764;2022-12-10T15:34:14;19.48;;;9.45;;
72791;SDS011;60907;53.268;8.764;2022-12-10T15:39:16;19.13;;;9.02;;
72791;SDS011;60907;53.268;8.764;2022-12-10T15:49:30;19.85;;;9.63;;
72791;SDS011;60907;53.268;8.764;2022-12-10T15:51:55;19.20;;;9.00;;
72791;SDS011;60907;53.268;8.764;2022-12-10T15:54:22;21.10;;;9.65;;
72791;SDS011;60907;53.268;8.764;2022-12-10T15:56:52;22.48;;;9.38;;
72791;SDS011;60907;53.268;8.764;2022-12-10T15:59:17;21.88;;;9.55;;
72791;SDS011;60907;53.268;8.764;2022-12-10T16:01:43;18.83;;;8.98;;
72791;SDS011;60907;53.268;8.764;2022-12-10T16:04:08;19.60;;;7.93;;
72791;SDS011;60907;53.268;8.764;2022-12-10T16:06:34;19.50;;;8.85;;
72791;SDS011;60907;53.268;8.764;2022-12-10T16:08:59;22.30;;;9.27;;
72791;SDS011;60907;53.268;8.764;2022-12-10T16:11:25;18.70;;;8.40;;
72791;SDS011;60907;53.268;8.764;2022-12-10T16:13:53;19.90;;;9.05;;
72791;SDS011;60907;53.268;8.764;2022-12-10T16:16:21;21.65;;;9.45;;
72791;SDS011;60907;53.268;8.764;2022-12-10T16:18:48;21.27;;;9.77;;
72791;SDS011;60907;53.268;8.764;2022-12-10T16:21:13;20.65;;;9.65;;
72791;SDS011;60907;53.268;8.764;2022-12-10T16:23:39;19.98;;;9.45;;
72791;SDS011;60907;53.268;8.764;2022-12-10T16:26:09;24.73;;;9.95;;
72791;SDS011;60907;53.268;8.764;2022-12-10T16:28:39;20.75;;;9.55;;
72791;SDS011;60907;53.268;8.764;2022-12-10T16:31:04;21.58;;;9.50;;
72791;SDS011;60907;53.268;8.764;2022-12-10T16:33:29;18.38;;;9.20;;
72791;SDS011;60907;53.268;8.764;2022-12-10T16:35:55;21.48;;;9.02;;
72791;SDS011;60907;53.268;8.764;2022-12-10T16:38:26;15.43;;;8.27;;
72791;SDS011;60907;53.268;8.764;2022-12-10T16:40:52;17.98;;;8.02;;
72791;SDS011;60907;53.268;8.764;2022-12-10T16:43:21;20.03;;;8.63;;
72791;SDS011;60907;53.268;8.764;2022-12-10T16:45:50;17.73;;;8.32;;
72791;SDS011;60907;53.268;8.764;2022-12-10T16:48:16;19.67;;;9.80;;
72791;SDS011;60907;53.268;8.764;2022-12-10T16:50:41;21.85;;;9.63;;
72791;SDS011;60907;53.268;8.764;2022-12-10T16:53:14;17.42;;;9.32;;
72791;SDS011;60907;53.268;8.764;2022-12-10T16:55:50;19.77;;;10.23;;
72791;SDS011;60907;53.268;8.764;2022-12-10T16:58:16;15.93;;;8.75;;
72791;SDS011;60907;53.268;8.764;2022-12-10T17:00:46;20.58;;;9.63;;
72791;SDS011;60907;53.268;8.764;2022-12-10T17:03:13;25.08;;;11.35;;
72791;SDS011;60907;53.268;8.764;2022-12-10T17:06:00;20.17;;;9.30;;
72791;SDS011;60907;53.268;8.764;2022-12-10T17:08:27;23.05;;;9.23;;
72791;SDS011;60907;53.268;8.764;2022-12-10T17:10:54;22.63;;;9.52;;
72791;SDS011;60907;53.268;8.764;2022-12-10T17:13:39;25.38;;;9.95;;
72791;SDS011;60907;53.268;8.764;2022-12-10T17:16:05;19.73;;;9.27;;
72791;SDS011;60907;53.268;8.764;2022-12-10T17:18:31;24.27;;;10.15;;
72791;SDS011;60907;53.268;8.764;2022-12-10T17:20:58;23.95;;;9.85;;